Powhatan Point, OH (43942)

1:59 AM EDT on September 16, 2014 (GMT -0400)
Shadyside, Ohio | Change Station
CLOSE
Current Station
Personal Weather Station
Location: Shadyside, OH
Elevation: 669 ft
Nearby Weather Stations

Elev 669 ft 39.98 °N, 80.74 °W | Updated 21 seconds ago

Overcast
Overcast
60.5 °F
Feels Like 60.5 °F
N
0.0
Wind Variable Wind from SSW
Gusts 0.0 mph

Today
High -- | Low -- °F
--% Chance of Precip.
Yesterday
High -- | Low -- °F
Precip. -- in
7:05 AM 7:30 PM
Waning Gibbous, 48% visible
Pressure 30.07 in
Visibility 10.0 miles
Clouds Overcast 4000 ft
Dew Point 57 °F
Humidity 89%
Rainfall 0.00 in
Snow Depth Not available.
UV 0 out of 12
Pollen 3.70 out of 12
Air Quality Not available.
Flu Activity Not available.
METAR KHLG 160553Z AUTO 29007KT 10SM OVC040 15/11 A3007 RMK AO2 SLP181 T01500111 10167 20139 55000

More Conditions Fewer Conditions

Pressure 30.07 in
Visibility 10.0 miles
Clouds Overcast 4000 ft
Dew Point 57 °F
Humidity 89%
Rainfall 0.00 in
Snow Depth Not available.
UV 0 out of 12
Pollen 3.70 out of 12
Air Quality Not available.
Flu Activity Not available.
METAR KHLG 160553Z AUTO 29007KT 10SM OVC040 15/11 A3007 RMK AO2 SLP181 T01500111 10167 20139 55000

More Conditions Fewer Conditions

10-Day Weather Forecast

Almanac

Astronomy

Sep. 16, 2014 Rise Set
Actual Time 7:05 AM EDT 7:30 PM EDT
Civil Twilight 6:38 AM EDT 7:57 PM EDT
Nautical Twilight 6:06 AM EDT 8:29 PM EDT
Astronomical Twilight 5:33 AM EDT 9:01 PM EDT
Moon 12:14 AM EDT 2:52 PM EDT
Length of Visible Light 13h 19m
Length of Day
12h 25m
Tomorrow will be 2m 35s shorter.
Waning Gibbous, 48% of the Moon is Illuminated
Today
Waning Gibbous
Sep 24
New
Oct 1
First Quarter
Oct 8
Full
Oct 15
Last Quarter

Today's Extremes

State Highs State Lows

Community

WunderPhotos

Upload Photos

1,753,702 photos uploaded!

Nearby

Snow Depth

Station Depth Elevation
No new snow has been reported.

Earthquake Activity

City Distance Mag. Time & Date
No recent earthquake activity has been reported nearby.
Minimum magnitude displayed is 2.5.

Coastal Water Temperatures

Place Temperature
No Stations Reporting

Nearby Weather Stations